Time;durP1;ratioP1;P1;durP2;ratioP2;P2;SDS_P1;SDS_P2;PMS_P1;PMS_P2;Temp;Humidity;BMP_temperature;BMP_pressure;BME280_temperature;BME280_humidity;BME280_pressure;Samples;Min_cycle;Max_cycle;Signal;HPM_P1;HPM_P2
2023/09/23 00:00:23;;;;;;;2.10;1.63;;;11.00;99.90;;;;;;4968764;28;20472;-59
2023/09/23 00:02:49;;;;;;;2.30;1.70;;;11.10;99.90;;;;;;4968785;28;20429;-59
2023/09/23 00:05:16;;;;;;;2.60;1.67;;;11.00;99.90;;;;;;4971042;28;20460;-59
2023/09/23 00:07:43;;;;;;;4.50;1.60;;;11.00;99.90;;;;;;4967967;28;20202;-60
2023/09/23 00:10:10;;;;;;;3.50;1.73;;;11.00;99.90;;;;;;4965769;28;20456;-59
2023/09/23 00:12:40;;;;;;;2.80;1.87;;;11.00;99.90;;;;;;4964523;28;20472;-60
2023/09/23 00:15:07;;;;;;;2.57;2.20;;;11.00;99.90;;;;;;4963994;28;20449;-59
2023/09/23 00:17:35;;;;;;;2.33;1.60;;;11.00;99.90;;;;;;4966185;28;20963;-59
2023/09/23 00:20:14;;;;;;;1.90;1.73;;;11.00;99.90;;;;;;4965807;28;20878;-59
2023/09/23 00:22:40;;;;;;;1.80;1.70;;;10.90;99.90;;;;;;4968786;28;20511;-60
2023/09/23 00:25:06;;;;;;;3.00;2.03;;;10.90;99.90;;;;;;4961706;28;20456;-59
2023/09/23 00:27:34;;;;;;;2.17;1.90;;;10.90;99.90;;;;;;4971986;28;20483;-59
2023/09/23 00:30:00;;;;;;;3.63;1.50;;;10.90;99.90;;;;;;4961595;28;21118;-59
2023/09/23 00:32:25;;;;;;;2.80;1.40;;;10.90;99.90;;;;;;4956049;28;20477;-60
2023/09/23 00:34:51;;;;;;;1.63;1.20;;;10.90;99.90;;;;;;4962324;28;20473;-59
2023/09/23 00:37:17;;;;;;;7.40;1.30;;;10.90;99.90;;;;;;4958647;28;20937;-60
2023/09/23 00:39:43;;;;;;;3.10;1.90;;;10.90;99.90;;;;;;4957727;28;20847;-59
2023/09/23 00:42:12;;;;;;;6.03;1.50;;;10.90;99.90;;;;;;4959812;28;20194;-60
2023/09/23 00:44:39;;;;;;;1.40;1.27;;;10.90;99.90;;;;;;4958868;28;20721;-60
2023/09/23 00:47:06;;;;;;;2.80;1.27;;;10.90;99.90;;;;;;4960857;28;20452;-59
2023/09/23 00:49:33;;;;;;;2.77;1.30;;;10.90;99.90;;;;;;4959705;28;20440;-60
2023/09/23 00:52:01;;;;;;;1.40;1.30;;;11.00;99.90;;;;;;4960318;28;20595;-60
2023/09/23 00:54:27;;;;;;;1.23;1.10;;;11.00;99.90;;;;;;4962067;28;20465;-59
2023/09/23 00:56:52;;;;;;;4.70;1.40;;;11.00;99.90;;;;;;4963760;28;20495;-60
2023/09/23 00:59:18;;;;;;;2.73;1.30;;;11.00;99.90;;;;;;4961308;28;20225;-60
2023/09/23 01:01:51;;;;;;;3.70;1.30;;;11.00;99.90;;;;;;4961723;28;20178;-59
2023/09/23 01:04:17;;;;;;;2.40;1.20;;;11.00;99.90;;;;;;4961739;28;20464;-59
2023/09/23 01:06:43;;;;;;;2.50;1.50;;;11.00;99.90;;;;;;4957572;28;20445;-59
2023/09/23 01:09:15;;;;;;;2.47;1.60;;;11.00;99.90;;;;;;4959824;28;20210;-59
2023/09/23 01:11:41;;;;;;;8.83;1.70;;;11.00;99.90;;;;;;4961622;28;20482;-60
2023/09/23 01:14:06;;;;;;;3.20;2.23;;;10.90;99.90;;;;;;4962850;28;20884;-59
2023/09/23 01:16:33;;;;;;;1.33;1.10;;;10.90;99.90;;;;;;4960745;28;20205;-59
2023/09/23 01:18:58;;;;;;;1.30;1.20;;;10.90;99.90;;;;;;4963244;28;20186;-59
2023/09/23 01:21:24;;;;;;;1.50;1.40;;;10.90;99.90;;;;;;4959998;28;20483;-60
2023/09/23 01:23:50;;;;;;;2.20;1.13;;;10.80;99.90;;;;;;4959317;28;20225;-60
2023/09/23 01:26:16;;;;;;;2.17;1.30;;;10.80;99.90;;;;;;4961709;28;20189;-60
2023/09/23 01:28:43;;;;;;;1.20;1.10;;;10.80;99.90;;;;;;4962583;28;20836;-59
2023/09/23 01:31:09;;;;;;;2.50;1.20;;;10.80;99.90;;;;;;4958724;28;20947;-59
2023/09/23 01:33:35;;;;;;;1.50;1.40;;;10.70;99.90;;;;;;4958945;28;20468;-60
2023/09/23 01:36:04;;;;;;;3.73;1.10;;;10.70;99.90;;;;;;4963352;28;20190;-59
2023/09/23 01:38:30;;;;;;;1.63;1.20;;;10.70;99.90;;;;;;4964196;28;20445;-59
2023/09/23 01:40:56;;;;;;;1.53;1.20;;;10.60;99.90;;;;;;4959093;28;20914;-61
2023/09/23 01:43:22;;;;;;;3.40;1.40;;;10.60;99.90;;;;;;4961766;28;21189;-60
2023/09/23 01:45:48;;;;;;;2.83;1.10;;;10.50;99.90;;;;;;4968092;28;20245;-60
2023/09/23 01:48:15;;;;;;;3.20;1.70;;;10.50;99.90;;;;;;4960942;28;20268;-59
2023/09/23 01:50:41;;;;;;;1.77;1.40;;;10.50;99.90;;;;;;4962853;28;20519;-59
2023/09/23 01:53:08;;;;;;;4.67;1.50;;;10.40;99.90;;;;;;4964009;28;20522;-60
2023/09/23 01:55:34;;;;;;;3.83;1.20;;;10.40;99.90;;;;;;4967153;28;20511;-60
2023/09/23 01:58:00;;;;;;;1.30;1.10;;;10.30;99.90;;;;;;4963437;28;20429;-60
2023/09/23 02:00:26;;;;;;;3.33;1.23;;;10.30;99.90;;;;;;4962997;28;20485;-60
2023/09/23 02:02:55;;;;;;;1.23;1.10;;;10.20;99.90;;;;;;4965270;28;20959;-60
2023/09/23 02:05:24;;;;;;;1.43;1.17;;;10.20;99.90;;;;;;4965146;28;20197;-60
2023/09/23 02:07:50;;;;;;;2.10;1.20;;;10.10;99.90;;;;;;4963657;28;20464;-59
2023/09/23 02:10:17;;;;;;;1.20;1.13;;;10.10;99.90;;;;;;4961389;28;20428;-59
2023/09/23 02:12:44;;;;;;;0.90;0.90;;;10.00;99.90;;;;;;4969136;28;21240;-60
2023/09/23 02:15:15;;;;;;;2.20;1.30;;;10.10;99.90;;;;;;4962539;28;20449;-59
2023/09/23 02:17:45;;;;;;;1.53;1.43;;;10.00;99.90;;;;;;4960697;28;20504;-59
2023/09/23 02:20:18;;;;;;;1.40;1.30;;;10.00;99.90;;;;;;4965805;28;20939;-59
2023/09/23 02:22:54;;;;;;;2.00;1.40;;;10.00;99.90;;;;;;4980304;28;20480;-59
2023/09/23 02:25:24;;;;;;;1.77;1.50;;;10.00;99.90;;;;;;4964568;28;20448;-61
2023/09/23 02:27:51;;;;;;;6.37;1.67;;;10.00;99.90;;;;;;4960108;28;20515;-60
2023/09/23 02:30:17;;;;;;;1.60;1.50;;;10.00;99.90;;;;;;4962506;28;20475;-60
2023/09/23 02:32:44;;;;;;;4.30;1.70;;;10.00;99.90;;;;;;4961269;28;20467;-59
2023/09/23 02:35:12;;;;;;;2.70;1.20;;;10.00;99.90;;;;;;4962095;28;20453;-60
2023/09/23 02:37:42;;;;;;;1.57;1.27;;;10.00;99.90;;;;;;4964231;28;20429;-58
2023/09/23 02:40:17;;;;;;;4.47;1.50;;;10.00;99.90;;;;;;4957703;28;20535;-60
2023/09/23 02:42:45;;;;;;;1.40;1.30;;;10.00;99.90;;;;;;4958705;28;20460;-60
2023/09/23 02:45:13;;;;;;;1.13;1.03;;;9.90;99.90;;;;;;4964752;28;20484;-59
2023/09/23 02:47:41;;;;;;;2.73;1.10;;;9.90;99.90;;;;;;4962232;28;20432;-59
2023/09/23 02:50:12;;;;;;;1.77;1.20;;;9.90;99.90;;;;;;4963054;28;20896;-60
2023/09/23 02:52:41;;;;;;;4.43;1.30;;;9.90;99.90;;;;;;4963378;28;20559;-59
2023/09/23 02:55:12;;;;;;;1.40;1.30;;;9.80;99.90;;;;;;4962244;28;20792;-60
2023/09/23 02:57:49;;;;;;;4.73;1.53;;;9.80;99.90;;;;;;4961755;28;20437;-60
2023/09/23 03:00:16;;;;;;;2.00;1.43;;;9.80;99.90;;;;;;4966888;28;20440;-59
2023/09/23 03:02:48;;;;;;;2.67;1.10;;;9.70;99.90;;;;;;4963746;28;20432;-59
2023/09/23 03:05:17;;;;;;;6.30;2.43;;;9.70;99.90;;;;;;4970127;28;20467;-59
2023/09/23 03:07:50;;;;;;;2.20;2.00;;;9.80;99.90;;;;;;4967108;28;21019;-59
2023/09/23 03:10:19;;;;;;;3.73;2.23;;;9.80;99.90;;;;;;4966899;28;20445;-57
2023/09/23 03:12:56;;;;;;;4.10;1.70;;;9.70;99.90;;;;;;4965864;28;20469;-56
2023/09/23 03:15:33;;;;;;;3.73;1.93;;;9.80;99.90;;;;;;4969237;28;21241;-57
2023/09/23 03:18:00;;;;;;;2.30;1.50;;;9.70;99.90;;;;;;4972445;28;20513;-56
2023/09/23 03:20:26;;;;;;;6.80;4.80;;;9.80;99.90;;;;;;4951223;28;20429;-57
2023/09/23 03:22:53;;;;;;;11.50;7.50;;;9.70;99.90;;;;;;4949350;28;20464;-57
2023/09/23 03:25:20;;;;;;;6.97;4.67;;;9.80;99.90;;;;;;4966579;28;20566;-56
2023/09/23 03:27:51;;;;;;;3.30;2.97;;;9.70;99.90;;;;;;4966746;28;20434;-57
2023/09/23 03:30:17;;;;;;;4.50;1.73;;;9.70;99.90;;;;;;4965728;28;20444;-59
2023/09/23 03:32:44;;;;;;;1.40;1.30;;;9.80;99.90;;;;;;4965213;28;20468;-59
2023/09/23 03:35:17;;;;;;;3.80;1.47;;;9.80;99.90;;;;;;4969180;28;20444;-58
2023/09/23 03:37:49;;;;;;;1.47;1.27;;;9.80;99.90;;;;;;4966406;28;20936;-59
2023/09/23 03:40:20;;;;;;;1.80;1.33;;;9.80;99.90;;;;;;4965285;28;20516;-59
2023/09/23 03:42:47;;;;;;;1.70;1.60;;;9.80;99.90;;;;;;4957614;28;20433;-59
2023/09/23 03:45:12;;;;;;;1.90;1.53;;;9.80;99.90;;;;;;4963136;28;20464;-60
2023/09/23 03:47:38;;;;;;;5.30;2.63;;;9.80;99.90;;;;;;4962634;28;20516;-61
2023/09/23 03:50:04;;;;;;;4.20;1.80;;;9.80;99.90;;;;;;4963336;28;20175;-61
2023/09/23 03:52:30;;;;;;;2.13;1.13;;;9.80;99.90;;;;;;4959997;28;20205;-60
2023/09/23 03:54:57;;;;;;;2.30;1.30;;;9.80;99.90;;;;;;4967676;28;20453;-61
2023/09/23 03:57:22;;;;;;;2.20;1.10;;;9.80;99.90;;;;;;4957988;28;20186;-61
2023/09/23 03:59:49;;;;;;;1.87;1.40;;;9.70;99.90;;;;;;4966124;28;21193;-61
2023/09/23 04:02:15;;;;;;;1.40;1.30;;;9.70;99.90;;;;;;4959855;28;20955;-62
2023/09/23 04:04:40;;;;;;;1.37;1.27;;;9.60;99.90;;;;;;4959765;28;20449;-61
2023/09/23 04:07:07;;;;;;;2.40;1.40;;;9.60;99.90;;;;;;4961860;28;20240;-61
2023/09/23 04:09:33;;;;;;;2.77;1.40;;;9.60;99.90;;;;;;4963000;28;21190;-61
2023/09/23 04:12:04;;;;;;;2.83;1.80;;;9.60;99.90;;;;;;4958322;28;20460;-62
2023/09/23 04:14:30;;;;;;;1.70;1.50;;;9.60;99.90;;;;;;4956822;28;20289;-61
2023/09/23 04:16:55;;;;;;;3.67;1.60;;;9.60;99.90;;;;;;4959981;28;20556;-61
2023/09/23 04:19:21;;;;;;;3.87;1.70;;;9.60;99.90;;;;;;4965617;28;20916;-61
2023/09/23 04:21:46;;;;;;;1.57;1.47;;;9.60;99.90;;;;;;4963250;28;20261;-60
2023/09/23 04:24:12;;;;;;;2.10;1.83;;;9.60;99.90;;;;;;4969076;28;20252;-61
2023/09/23 04:26:37;;;;;;;3.10;1.47;;;9.60;99.90;;;;;;4966269;28;20268;-61
2023/09/23 04:29:04;;;;;;;1.53;1.43;;;9.60;99.90;;;;;;4970331;28;20178;-61
2023/09/23 04:31:30;;;;;;;4.10;1.60;;;9.60;99.90;;;;;;4970521;28;20456;-61
2023/09/23 04:33:55;;;;;;;2.20;1.60;;;9.60;99.90;;;;;;4968084;28;20193;-61
2023/09/23 04:36:21;;;;;;;4.07;1.57;;;9.70;99.90;;;;;;4966665;28;20264;-61
2023/09/23 04:38:48;;;;;;;1.40;1.30;;;9.60;99.90;;;;;;4970043;28;20178;-61
2023/09/23 04:41:14;;;;;;;1.77;1.43;;;9.70;99.90;;;;;;4970437;28;20870;-61
2023/09/23 04:43:40;;;;;;;2.80;1.60;;;9.60;99.90;;;;;;4965239;28;20497;-60
2023/09/23 04:46:06;;;;;;;1.53;1.33;;;9.60;99.90;;;;;;4971051;28;20181;-61
2023/09/23 04:48:31;;;;;;;3.60;1.40;;;9.60;99.90;;;;;;4970980;28;20495;-61
2023/09/23 04:50:57;;;;;;;1.10;1.00;;;9.60;99.90;;;;;;4967724;28;20963;-61
2023/09/23 04:53:23;;;;;;;2.00;1.47;;;9.60;99.90;;;;;;4971429;28;20259;-61
2023/09/23 04:55:49;;;;;;;1.20;1.10;;;9.60;99.90;;;;;;4968895;28;20248;-61
2023/09/23 04:58:14;;;;;;;1.40;1.30;;;9.50;99.90;;;;;;4970863;28;20787;-61
2023/09/23 05:00:40;;;;;;;2.30;1.30;;;9.50;99.90;;;;;;4972203;28;20226;-61
2023/09/23 05:03:08;;;;;;;2.87;1.50;;;9.40;99.90;;;;;;4970986;28;20197;-61
2023/09/23 05:05:34;;;;;;;7.03;1.97;;;9.40;99.90;;;;;;4967124;28;20229;-61
2023/09/23 05:08:02;;;;;;;3.73;1.23;;;9.40;99.90;;;;;;4967989;28;20464;-61
2023/09/23 05:10:28;;;;;;;1.70;1.60;;;9.40;99.90;;;;;;4968832;28;20441;-61
2023/09/23 05:12:54;;;;;;;2.30;1.80;;;9.40;99.90;;;;;;4969288;28;20460;-61
2023/09/23 05:15:20;;;;;;;2.10;1.93;;;9.40;99.90;;;;;;4969303;28;20496;-61
2023/09/23 05:17:45;;;;;;;3.30;2.27;;;9.40;99.90;;;;;;4969818;28;20421;-61
2023/09/23 05:20:21;;;;;;;1.77;1.67;;;9.40;99.90;;;;;;4970143;28;20184;-61
2023/09/23 05:22:48;;;;;;;2.83;1.60;;;9.40;99.90;;;;;;4967729;28;20181;-61
2023/09/23 05:25:14;;;;;;;2.57;1.80;;;9.40;99.90;;;;;;4967957;28;20518;-61
2023/09/23 05:27:40;;;;;;;1.97;1.87;;;9.40;99.90;;;;;;4965745;28;21294;-61
2023/09/23 05:30:10;;;;;;;2.23;2.03;;;9.40;99.90;;;;;;4971112;28;20200;-61
2023/09/23 05:32:37;;;;;;;2.77;2.57;;;9.40;99.90;;;;;;4967241;28;20473;-61
2023/09/23 05:35:08;;;;;;;3.37;2.63;;;9.40;99.90;;;;;;4970490;28;20448;-60
2023/09/23 05:37:34;;;;;;;4.73;3.70;;;9.50;99.90;;;;;;4963920;28;20438;-60
2023/09/23 05:40:00;;;;;;;6.60;3.93;;;9.50;99.90;;;;;;4961419;28;20476;-61
2023/09/23 05:42:26;;;;;;;13.10;8.00;;;9.50;99.90;;;;;;4969137;28;20444;-61
2023/09/23 05:44:52;;;;;;;7.30;5.03;;;9.60;99.90;;;;;;4965339;28;20198;-60
2023/09/23 05:47:17;;;;;;;6.27;3.20;;;9.50;99.90;;;;;;4970384;28;20439;-61
2023/09/23 05:49:43;;;;;;;4.77;2.90;;;9.60;99.90;;;;;;4968010;28;20213;-61
2023/09/23 05:52:10;;;;;;;4.07;3.23;;;9.60;99.90;;;;;;4965349;28;20233;-61
2023/09/23 05:54:36;;;;;;;5.20;3.20;;;9.60;99.90;;;;;;4965207;28;20202;-61
2023/09/23 05:57:01;;;;;;;5.50;3.30;;;9.60;99.90;;;;;;4965922;28;20459;-61
2023/09/23 05:59:28;;;;;;;15.23;8.47;;;9.60;99.90;;;;;;4969756;28;20178;-60
2023/09/23 06:01:54;;;;;;;15.57;7.57;;;9.70;99.90;;;;;;4961522;28;20915;-61
2023/09/23 06:04:19;;;;;;;11.50;8.00;;;9.70;99.90;;;;;;4967237;28;20452;-61
2023/09/23 06:06:45;;;;;;;14.80;7.10;;;9.70;99.90;;;;;;4959356;28;20181;-61
2023/09/23 06:09:10;;;;;;;12.37;6.83;;;9.70;99.90;;;;;;4963513;28;20224;-60
2023/09/23 06:11:37;;;;;;;16.30;5.60;;;9.70;99.90;;;;;;4963889;28;20256;-61
2023/09/23 06:14:03;;;;;;;11.33;6.03;;;9.70;99.90;;;;;;4967954;28;20692;-61
2023/09/23 06:16:29;;;;;;;12.87;5.60;;;9.80;99.90;;;;;;4968462;28;20432;-61
2023/09/23 06:18:54;;;;;;;9.20;5.30;;;9.80;99.90;;;;;;4969681;28;20771;-61
2023/09/23 06:21:20;;;;;;;8.90;5.40;;;9.90;99.90;;;;;;4967076;28;20186;-61
2023/09/23 06:23:46;;;;;;;5.70;4.80;;;9.90;99.90;;;;;;4971199;28;20208;-61
2023/09/23 06:26:12;;;;;;;5.10;4.20;;;9.90;99.90;;;;;;4968329;28;20708;-62
2023/09/23 06:28:38;;;;;;;7.50;4.50;;;9.90;99.90;;;;;;4965370;28;20437;-60
2023/09/23 06:31:06;;;;;;;6.20;4.70;;;10.00;99.90;;;;;;4969268;28;20627;-60
2023/09/23 06:33:31;;;;;;;4.70;3.70;;;10.00;99.90;;;;;;4961496;28;20297;-60
2023/09/23 06:36:02;;;;;;;8.03;5.03;;;10.00;99.90;;;;;;4967220;28;20528;-60
2023/09/23 06:38:28;;;;;;;7.77;5.80;;;10.00;99.90;;;;;;4965811;28;20201;-60
2023/09/23 06:40:57;;;;;;;6.20;4.60;;;10.00;99.90;;;;;;4965204;28;20457;-60
2023/09/23 06:43:23;;;;;;;6.77;4.87;;;10.00;99.90;;;;;;4966156;28;20244;-60
2023/09/23 06:45:58;;;;;;;8.50;5.50;;;10.00;99.90;;;;;;4964333;28;20456;-59
2023/09/23 06:48:25;;;;;;;4.10;3.57;;;10.00;99.90;;;;;;4963194;28;20189;-61
2023/09/23 06:51:01;;;;;;;5.90;4.00;;;10.00;99.90;;;;;;4968056;28;20438;-61
2023/09/23 06:53:30;;;;;;;5.33;4.23;;;10.00;99.90;;;;;;4965383;28;20496;-61
2023/09/23 06:55:56;;;;;;;4.00;3.60;;;10.00;99.90;;;;;;4965040;28;20523;-61
2023/09/23 06:58:22;;;;;;;5.10;4.37;;;10.00;99.90;;;;;;4968672;28;20529;-61
2023/09/23 07:00:48;;;;;;;4.00;3.60;;;10.00;99.90;;;;;;4967428;28;20882;-60
2023/09/23 07:03:14;;;;;;;5.23;3.80;;;10.10;99.90;;;;;;4962908;28;20453;-60
2023/09/23 07:05:41;;;;;;;15.03;7.00;;;10.10;99.90;;;;;;4964570;28;20457;-60
2023/09/23 07:08:07;;;;;;;7.50;5.30;;;10.20;99.90;;;;;;4967687;28;20186;-60
2023/09/23 07:10:36;;;;;;;6.43;4.50;;;10.20;99.90;;;;;;4967033;28;20447;-61
2023/09/23 07:13:03;;;;;;;6.23;4.67;;;10.30;99.90;;;;;;4965864;28;20460;-60
2023/09/23 07:15:31;;;;;;;6.87;3.83;;;10.30;99.90;;;;;;4969102;28;20455;-61
2023/09/23 07:17:57;;;;;;;5.20;4.40;;;10.30;99.90;;;;;;4964137;28;20433;-60
2023/09/23 07:20:22;;;;;;;6.00;3.63;;;10.40;99.90;;;;;;4962905;28;20517;-61
2023/09/23 07:22:48;;;;;;;4.20;3.80;;;10.40;99.90;;;;;;4968435;28;20513;-61
2023/09/23 07:25:14;;;;;;;5.40;4.43;;;10.40;99.90;;;;;;4965378;28;20639;-61
2023/09/23 07:27:39;;;;;;;4.90;4.30;;;10.40;99.90;;;;;;4967961;28;20178;-61
2023/09/23 07:30:05;;;;;;;4.33;3.67;;;10.50;99.90;;;;;;4967137;28;20695;-61
2023/09/23 07:32:31;;;;;;;4.10;3.60;;;10.50;99.90;;;;;;4967276;28;20213;-60
2023/09/23 07:34:57;;;;;;;3.60;3.07;;;10.60;99.90;;;;;;4966084;28;20449;-61
2023/09/23 07:37:23;;;;;;;4.67;2.77;;;10.70;99.90;;;;;;4964275;28;20580;-61
2023/09/23 07:39:49;;;;;;;3.60;2.87;;;10.70;99.90;;;;;;4966795;28;20205;-61
2023/09/23 07:42:14;;;;;;;3.50;2.90;;;10.80;99.90;;;;;;4965371;28;20460;-61
2023/09/23 07:44:40;;;;;;;4.90;2.97;;;10.90;99.90;;;;;;4968058;28;20222;-61
2023/09/23 07:47:05;;;;;;;7.03;2.53;;;10.90;99.90;;;;;;4966369;28;20244;-62
2023/09/23 07:49:31;;;;;;;3.00;2.30;;;11.00;99.90;;;;;;4968503;28;20257;-61
2023/09/23 07:51:58;;;;;;;3.00;2.33;;;11.00;99.90;;;;;;4965230;28;20228;-61
2023/09/23 07:54:24;;;;;;;3.93;2.30;;;11.00;99.90;;;;;;4964572;28;20630;-60
2023/09/23 07:56:49;;;;;;;3.03;1.80;;;11.10;99.90;;;;;;4968059;28;20428;-61
2023/09/23 07:59:15;;;;;;;1.97;1.80;;;11.20;99.90;;;;;;4972260;28;20178;-61
2023/09/23 08:01:41;;;;;;;2.30;2.10;;;11.20;99.90;;;;;;4966817;28;20321;-61
2023/09/23 08:04:06;;;;;;;4.83;2.23;;;11.30;99.90;;;;;;4967072;28;20224;-61
2023/09/23 08:06:32;;;;;;;3.20;2.90;;;11.30;99.90;;;;;;4971870;28;20178;-61
2023/09/23 08:08:57;;;;;;;2.93;2.10;;;11.40;99.90;;;;;;4967366;28;20178;-61
2023/09/23 08:11:23;;;;;;;2.20;1.70;;;11.40;99.90;;;;;;4966541;28;20340;-61
2023/09/23 08:13:49;;;;;;;3.37;1.77;;;11.50;99.90;;;;;;4969031;28;20193;-61
2023/09/23 08:16:14;;;;;;;4.03;1.80;;;11.50;99.90;;;;;;4971285;28;20178;-61
2023/09/23 08:18:40;;;;;;;2.40;2.13;;;11.60;99.90;;;;;;4966175;28;20265;-61
2023/09/23 08:21:06;;;;;;;1.73;1.63;;;11.60;99.90;;;;;;4966890;28;20169;-61
2023/09/23 08:23:32;;;;;;;2.17;1.57;;;11.70;99.90;;;;;;4971154;28;20970;-61
2023/09/23 08:25:58;;;;;;;2.63;1.80;;;11.70;99.90;;;;;;4971575;28;20228;-61
2023/09/23 08:28:24;;;;;;;1.57;1.47;;;11.80;99.90;;;;;;4968944;28;20182;-61
2023/09/23 08:30:51;;;;;;;1.70;1.60;;;11.80;99.90;;;;;;4967034;28;20555;-61
2023/09/23 08:33:17;;;;;;;3.63;2.20;;;11.90;99.90;;;;;;4970475;28;20212;-61
2023/09/23 08:35:47;;;;;;;5.33;3.40;;;11.90;99.90;;;;;;4964833;28;20442;-61
2023/09/23 08:38:13;;;;;;;4.00;1.70;;;12.00;99.90;;;;;;4968356;28;20430;-61
2023/09/23 08:40:39;;;;;;;1.63;1.37;;;12.00;99.90;;;;;;4971038;28;20424;-61
2023/09/23 08:43:05;;;;;;;1.77;1.67;;;12.00;99.90;;;;;;4968132;28;20831;-61
2023/09/23 08:45:32;;;;;;;2.40;1.50;;;12.10;99.90;;;;;;4965834;28;20193;-61
2023/09/23 08:47:58;;;;;;;5.53;2.10;;;12.20;99.90;;;;;;4968735;28;20433;-61
2023/09/23 08:50:25;;;;;;;6.43;1.47;;;12.20;99.90;;;;;;4968570;28;20425;-61
2023/09/23 08:52:55;;;;;;;1.53;1.43;;;12.30;99.90;;;;;;4972942;28;20456;-61
2023/09/23 08:55:22;;;;;;;3.00;1.60;;;12.30;99.90;;;;;;4966655;28;20474;-61
2023/09/23 08:57:48;;;;;;;1.40;1.30;;;12.30;99.90;;;;;;4970622;28;20432;-61
2023/09/23 09:00:17;;;;;;;1.73;1.43;;;12.30;99.90;;;;;;4969595;28;21221;-61
2023/09/23 09:02:43;;;;;;;1.53;1.43;;;12.40;99.90;;;;;;4960335;28;20264;-61
2023/09/23 09:05:09;;;;;;;1.67;1.40;;;12.40;99.90;;;;;;4972717;28;20528;-62
2023/09/23 09:07:36;;;;;;;2.43;1.70;;;12.50;99.90;;;;;;4965116;28;20178;-61
2023/09/23 09:10:03;;;;;;;6.03;1.50;;;12.50;99.90;;;;;;4966284;28;20186;-60
2023/09/23 09:12:30;;;;;;;3.33;1.40;;;12.50;99.90;;;;;;4971004;28;20457;-61
2023/09/23 09:14:56;;;;;;;3.77;1.57;;;12.50;99.90;;;;;;4968407;28;20468;-61
2023/09/23 09:17:21;;;;;;;3.63;2.27;;;12.60;99.90;;;;;;4971493;28;20429;-60
2023/09/23 09:19:49;;;;;;;8.23;2.53;;;12.60;99.90;;;;;;4969124;28;20290;-61
2023/09/23 09:22:15;;;;;;;3.10;2.07;;;12.60;99.90;;;;;;4963921;28;20183;-61
2023/09/23 09:24:41;;;;;;;2.60;1.77;;;12.70;99.90;;;;;;4965800;28;20464;-61
2023/09/23 09:27:14;;;;;;;3.00;1.37;;;12.70;99.90;;;;;;4965771;28;20178;-61
2023/09/23 09:29:43;;;;;;;4.73;1.93;;;12.80;99.90;;;;;;4967691;28;20184;-61
2023/09/23 09:32:10;;;;;;;1.60;1.20;;;12.80;99.90;;;;;;4969658;28;20469;-61
2023/09/23 09:34:47;;;;;;;2.03;1.60;;;12.80;99.90;;;;;;4960956;28;20500;-61
2023/09/23 09:37:14;;;;;;;1.50;1.40;;;12.90;99.90;;;;;;4982995;28;20510;-61
2023/09/23 09:40:00;;;;;;;3.10;1.30;;;12.90;99.90;;;;;;4966825;28;20476;-61
2023/09/23 09:42:30;;;;;;;1.40;1.30;;;13.00;99.90;;;;;;4966351;28;20527;-61
2023/09/23 09:44:57;;;;;;;4.77;1.50;;;13.20;99.90;;;;;;4967274;28;20465;-61
2023/09/23 09:47:23;;;;;;;1.80;1.23;;;13.30;99.90;;;;;;4971684;28;20437;-60
2023/09/23 09:49:52;;;;;;;2.37;1.20;;;13.40;99.90;;;;;;4967962;28;20524;-61
2023/09/23 09:52:21;;;;;;;2.60;1.27;;;13.50;99.90;;;;;;4968251;28;20336;-61
2023/09/23 09:54:52;;;;;;;4.03;1.20;;;13.50;99.90;;;;;;4959848;28;20823;-61
2023/09/23 09:57:20;;;;;;;4.63;1.37;;;13.70;99.90;;;;;;4968576;28;20440;-61
2023/09/23 09:59:45;;;;;;;2.00;1.20;;;13.80;99.90;;;;;;4965332;28;20881;-61
2023/09/23 10:02:14;;;;;;;5.30;1.37;;;13.80;99.90;;;;;;4965618;28;20454;-61
2023/09/23 10:04:49;;;;;;;1.50;1.20;;;13.80;99.90;;;;;;4967558;28;20195;-61
2023/09/23 10:07:16;;;;;;;4.37;1.40;;;13.90;99.90;;;;;;4967430;28;20452;-60
2023/09/23 10:09:55;;;;;;;2.10;1.43;;;13.90;99.90;;;;;;4963841;28;20444;-61
2023/09/23 10:12:25;;;;;;;2.83;1.20;;;13.80;99.90;;;;;;4965234;28;20468;-60
2023/09/23 10:14:57;;;;;;;1.57;1.20;;;13.80;99.90;;;;;;4966581;28;20736;-61
2023/09/23 10:17:31;;;;;;;3.00;1.40;;;14.00;99.90;;;;;;4966169;28;20426;-61
2023/09/23 10:19:57;;;;;;;1.53;1.23;;;14.20;99.90;;;;;;4964112;28;20452;-61
2023/09/23 10:22:24;;;;;;;1.57;1.20;;;14.40;99.90;;;;;;4968162;28;20961;-61
2023/09/23 10:25:07;;;;;;;1.30;1.20;;;14.60;99.90;;;;;;4966549;28;20445;-61
2023/09/23 10:27:33;;;;;;;2.60;1.90;;;14.80;99.90;;;;;;4960164;28;20437;-61
2023/09/23 10:30:00;;;;;;;1.87;1.40;;;15.00;99.90;;;;;;4958152;28;20517;-60
2023/09/23 10:32:26;;;;;;;3.83;1.40;;;15.10;98.80;;;;;;4967615;28;20523;-61
2023/09/23 10:34:55;;;;;;;5.33;1.80;;;15.30;95.50;;;;;;4968848;28;20975;-61
2023/09/23 10:37:35;;;;;;;1.77;1.17;;;15.30;92.60;;;;;;4966590;28;20189;-61
2023/09/23 10:40:13;;;;;;;6.93;3.03;;;15.40;95.70;;;;;;4967401;28;20956;-61
2023/09/23 10:42:44;;;;;;;2.27;1.40;;;15.50;96.60;;;;;;4968311;28;20456;-61
2023/09/23 10:45:11;;;;;;;1.47;1.37;;;15.70;95.90;;;;;;4964019;28;20461;-61
2023/09/23 10:47:37;;;;;;;2.37;1.47;;;15.80;97.00;;;;;;4964417;28;20924;-61
2023/09/23 10:50:10;;;;;;;1.83;1.47;;;16.00;90.50;;;;;;4965940;28;20483;-61
2023/09/23 10:52:36;;;;;;;1.77;1.20;;;16.10;92.30;;;;;;4965768;28;20241;-61
2023/09/23 10:55:03;;;;;;;1.93;1.63;;;16.20;82.80;;;;;;4962087;28;20759;-61
2023/09/23 10:57:29;;;;;;;1.80;1.50;;;16.40;88.60;;;;;;4965390;28;20456;-61
2023/09/23 10:59:55;;;;;;;1.33;1.20;;;16.50;83.70;;;;;;4968826;28;20978;-61
2023/09/23 11:02:25;;;;;;;2.17;1.10;;;16.40;73.40;;;;;;4962837;28;20216;-61
2023/09/23 11:04:54;;;;;;;3.23;1.40;;;16.20;78.80;;;;;;4964154;28;20937;-61
2023/09/23 11:07:20;;;;;;;1.23;1.13;;;16.30;89.80;;;;;;4960833;28;20456;-61
2023/09/23 11:09:46;;;;;;;3.63;1.50;;;16.30;78.00;;;;;;4985720;28;20496;-61
2023/09/23 11:12:16;;;;;;;2.37;1.50;;;16.20;78.00;;;;;;4963947;28;20493;-61
2023/09/23 11:14:43;;;;;;;1.10;1.00;;;16.20;76.20;;;;;;4968660;28;20441;-61
2023/09/23 11:17:25;;;;;;;1.43;1.30;;;16.10;70.90;;;;;;4966479;28;20456;-61
2023/09/23 11:19:54;;;;;;;2.70;1.40;;;15.90;75.10;;;;;;4965845;28;20428;-61
2023/09/23 11:22:27;;;;;;;1.20;1.07;;;15.80;76.70;;;;;;4967163;28;20521;-60
2023/09/23 11:24:54;;;;;;;1.37;1.20;;;15.60;75.20;;;;;;4962659;28;20457;-61
2023/09/23 11:27:21;;;;;;;1.60;1.37;;;15.50;81.20;;;;;;4965080;28;20430;-62
2023/09/23 11:29:48;;;;;;;2.60;1.30;;;15.50;86.40;;;;;;4960457;28;20549;-61
2023/09/23 11:32:14;;;;;;;1.97;1.20;;;15.50;85.30;;;;;;4968475;28;20603;-61
2023/09/23 11:34:39;;;;;;;2.50;1.13;;;15.40;84.20;;;;;;4967206;28;20441;-61
2023/09/23 11:37:05;;;;;;;2.60;1.10;;;15.30;82.20;;;;;;4965043;28;20430;-61
2023/09/23 11:39:37;;;;;;;1.53;1.30;;;15.30;83.90;;;;;;4969628;28;20220;-60
2023/09/23 11:42:04;;;;;;;3.07;1.30;;;15.10;85.90;;;;;;4968323;28;20241;-61
2023/09/23 11:44:29;;;;;;;2.40;1.30;;;15.00;91.70;;;;;;4965280;28;21023;-61
2023/09/23 11:46:55;;;;;;;3.37;1.43;;;14.90;93.00;;;;;;4968658;28;20520;-61
2023/09/23 11:49:21;;;;;;;1.63;1.30;;;14.90;93.80;;;;;;4963127;28;20492;-61
2023/09/23 11:51:47;;;;;;;1.50;1.10;;;14.90;93.00;;;;;;4968473;28;20181;-61
2023/09/23 11:54:12;;;;;;;3.07;1.60;;;14.90;92.30;;;;;;4966958;28;20198;-61
2023/09/23 11:56:38;;;;;;;1.80;1.60;;;14.90;89.30;;;;;;4964254;28;20182;-61
2023/09/23 11:59:04;;;;;;;1.20;1.10;;;14.80;91.10;;;;;;4964535;28;20178;-61
2023/09/23 12:01:30;;;;;;;2.77;1.50;;;14.80;93.80;;;;;;4960830;28;20178;-61
2023/09/23 12:03:58;;;;;;;1.30;1.20;;;14.80;93.10;;;;;;4963342;28;20178;-61
2023/09/23 12:06:34;;;;;;;2.47;1.60;;;14.90;95.50;;;;;;4967529;28;20182;-60
2023/09/23 12:09:03;;;;;;;2.10;1.43;;;15.10;98.60;;;;;;4967006;28;21082;-61
2023/09/23 12:11:30;;;;;;;4.70;1.73;;;15.50;94.90;;;;;;4965711;28;20453;-61
2023/09/23 12:13:55;;;;;;;3.10;1.13;;;15.60;90.10;;;;;;4963472;28;20523;-61
2023/09/23 12:16:21;;;;;;;3.13;1.33;;;15.80;89.60;;;;;;4967553;28;20429;-61
2023/09/23 12:18:48;;;;;;;2.60;1.27;;;15.90;85.90;;;;;;4963995;28;20174;-61
2023/09/23 12:21:15;;;;;;;2.30;1.60;;;15.80;83.90;;;;;;4964678;28;20517;-61
2023/09/23 12:23:41;;;;;;;1.70;1.30;;;15.60;85.80;;;;;;4961668;28;20446;-61
2023/09/23 12:26:09;;;;;;;1.73;1.17;;;15.50;86.20;;;;;;4959507;28;20421;-61
2023/09/23 12:28:38;;;;;;;4.47;1.17;;;15.40;86.30;;;;;;4963333;28;20576;-61
2023/09/23 12:31:04;;;;;;;1.40;1.30;;;15.40;85.00;;;;;;4964654;28;20460;-61
2023/09/23 12:33:29;;;;;;;3.07;1.17;;;15.50;85.20;;;;;;4968155;28;21164;-61
2023/09/23 12:35:55;;;;;;;1.20;1.10;;;15.70;85.10;;;;;;4967839;28;20198;-61
2023/09/23 12:38:21;;;;;;;4.03;1.40;;;15.60;73.90;;;;;;4965125;28;20185;-61
2023/09/23 12:40:47;;;;;;;4.87;1.33;;;15.40;73.40;;;;;;4963385;28;20575;-61
2023/09/23 12:43:12;;;;;;;1.20;1.10;;;15.30;74.90;;;;;;4967991;28;20347;-61
2023/09/23 12:45:41;;;;;;;2.10;1.23;;;15.10;70.40;;;;;;4970131;28;20912;-61
2023/09/23 12:48:07;;;;;;;3.03;1.40;;;15.10;75.50;;;;;;4968912;28;20181;-63
2023/09/23 12:50:33;;;;;;;2.70;1.40;;;15.10;80.40;;;;;;4970268;28;20425;-61